Relevés horaires Koksijde (Belgique)


Relevés horaires à Koksijde - Jeudi 25 Mai 2023
Heure UTC1 Température [°C] Vent [km/h] Hum. [%] Pres.4 [hPa] Visi. [Km] Nébu. [octa] Préc.5 [mm] Cond.
2m. Res. Ros. Dir.2 Vit. Moy. Raf.3
23:00 11.5 10.5 8.8 NE 9.3 -- 16.7 83 1029.2(0.1/3h) 11 -- -- --
22:00 11.5 10.5 8.6 NE 9.3 -- 18.5 82 1029.2(0.5/3h) 11 -- -- --
21:00 11.6 10.4 8.2 NNE 11.1 -- 18.5 80 1029.2(0.4/3h) 11 -- -- --
20:00 11.8 10.9 7.0 NNE 9.3 -- 18.5 72 1029(0.2/3h) 14 -- -- --
19:00 12.6 11.3 8.4 N 13.0 -- 18.5 76 1028.7(0.0/3h) 13 -- -- --
18:00 13.8 12.6 8.5 NNE 14.8 -- 24.1 70 1028.7(0.0/3h) 18 -- -- --
17:00 14.2 13.1 9.3 NNE 14.8 -- 22.2 72 1028.7(0.0/3h) 15 -- -- --
16:00 15.0 13.9 10.2 NNE 16.7 -- 24.1 73 1028.7(0.0/3h) 18 -- -- --
15:00 15.0 13.9 10.9 N 16.7 -- 24.1 76 1028.7(0.0/3h) 20 -- -- --
14:00 15.2 14.2 10.9 N 16.7 -- 22.2 75 1028.7(-0.2/3h) 20 2/8 -- --
13:00 14.8 13.7 10.6 NNE 16.7 -- 24.1 76 1028.9(0.0/3h) 20 2/8 -- --
12:00 15.2 14.3 11.0 N 14.8 -- 20.4 76 1028.9(0.1/3h) 20 2/8 -- --
11:00 15.9 15.2 10.0 NNE 14.8 -- 18.5 68 1029(0.6/3h) 20 3/8 -- --
10:00 15.6 15.2 9.8 N 11.1 -- 16.7 68 1028.7(0.8/3h) 20 3/8 -- --
09:00 14.9 14.6 7.9 NE 9.3 -- 14.8 63 1028.7(1.1/3h) 20 3/8 -- --
08:00 13.7 13.5 9.6 NNE 7.4 -- 11.1 76 1028.4(1.1/3h) 20 3/8 -- --
07:00 14.1 13.9 9.7 ENE 7.4 -- 11.1 75 1028(1.0/3h) 20 3/8 -- --
06:00 13.0 13 9.8 ENE 5.6 -- 11.1 81 1027.5(1.0/3h) 15 3/8 -- --
05:00 11.0 11.0 8.9 ENE 3.7 -- 5.6 87 1027.2(0.6/3h) 15 3/8 -- --
04:00 9.4 9.4 7.7 ENE 3.7 -- 5.6 89 1026.9(0.7/3h) 16 -- -- --
03:00 9.8 9.8 7.9 NE 3.7 -- 7.4 88 1026.5(0.5/3h) 19 -- -- --
02:00 9.7 9.7 8.3 NE 3.7 -- 7.4 91 1026.5(0.3/3h) 17 -- -- --
01:00 10.6 10.3 8.9 ENE 5.6 -- 7.4 89 1026(0.2/3h) 16 -- -- --
00:00 11.5 11.3 9.2 NE 5.6 -- 11.1 86 1026(0.5/3h) 19 -- -- --

1 Coordinated Universal Time. Actuellement il est 01:00 locale et 23:00 UTC.

2 Le vent souffle depuis la direction indiquée vers la direction oposée.

3 Les rafales max. sont disponible 40 min après l'heure du relevé.

4 Pour les stations d'altitude (plus de 600m) le géopotentiel du niveau le plus proche de la pression obligatoire est indiqué.

5 Les stations disposant d'un diffuseur peuvent indiquer "trace". Cela signifie que des précipitations ont touchés le sol mais que la quantité est inférieure à 0.1 mm.

Récapitulatif de la journée
Température [°C] Vent [km/h] Ensoleillement4 [h] Precipitations totale5 [mm] Pression [Hpa]
Min1 Max.2 Moy.3 Max. Min Max.
9.0 16.3 0 24.1 0 h 0 min 0 1026.0 1029.2

1 Température minimale relevée entre 18:00 UTC la veille et 18:00 UTC le jour donné.

2 Température maximale relevée entre 06:00 UTC le jour donné et 06:00 UTC le lendemain.

3 Vent moyen de la journée basé sur les relevés horaires.

4 Ensoleillement en heures relevé entre 06:00 UTC la veille et 06:00 UTC le jour donné.

5 Précipitations totales tombées entre 06:00 UTC la jour donné et 06:00 UTC le lendemain.

Graphiques horaires